Time;durP1;ratioP1;P1;durP2;ratioP2;P2;SDS_P1;SDS_P2;PMS_P1;PMS_P2;Temp;Humidity;BMP_temperature;BMP_pressure;BME280_temperature;BME280_humidity;BME280_pressure;Samples;Min_cycle;Max_cycle;Signal;HPM_P1;HPM_P2
2023/03/23 00:01:12;;;;;;;;;;;;;;;;;;5030058;28;19924;-43
2023/03/23 00:03:58;;;;;;;;;;;;;;;;;;5029271;28;19909;-40
2023/03/23 00:06:25;;;;;;;;;;;;;;;;;;5019661;28;19914;-40
2023/03/23 00:08:56;;;;;;;;;;;;;;;;;;5023020;28;19909;-41
2023/03/23 00:11:22;;;;;;;;;;;;;;;;;;5020466;28;19987;-41
2023/03/23 00:13:52;;;;;;;;;;;;;;;;;;5030789;28;19958;-40
2023/03/23 00:16:28;;;;;;;;;;;;;;;;;;5029131;28;20432;-40
2023/03/23 00:18:55;;;;;;;;;;;;;;;;;;5027603;28;19921;-41
2023/03/23 00:21:25;;;;;;;;;;;;;;;;;;5023243;28;20426;-40
2023/03/23 00:23:51;;;;;;;;;;;;;;;;;;5033734;28;19929;-40
2023/03/23 00:26:18;;;;;;;;;;;;;;;;;;5034841;28;20012;-38
2023/03/23 00:28:46;;;;;;;;;;;;;;;;;;5034185;28;19909;-39
2023/03/23 00:31:12;;;;;;;;;;;;;;;;;;5033888;28;20310;-39
2023/03/23 00:33:40;;;;;;;;;;;;;;;;;;5033989;28;19935;-38
2023/03/23 00:36:08;;;;;;;;;;;;;;;;;;5032521;28;19948;-39
2023/03/23 00:38:34;;;;;;;;;;;;;;;;;;5033999;28;19924;-38
2023/03/23 00:41:04;;;;;;;;;;;;;;;;;;5034585;28;19959;-38
2023/03/23 00:43:30;;;;;;;;;;;;;;;;;;5034256;28;20282;-38
2023/03/23 00:45:56;;;;;;;;;;;;;;;;;;5034492;28;19909;-38
2023/03/23 00:48:23;;;;;;;;;;;;;;;;;;5034160;28;20413;-38
2023/03/23 00:50:49;;;;;;;;;;;;;;;;;;5034252;28;19999;-38
2023/03/23 00:53:16;;;;;;;;;;;;;;;;;;5034081;28;19919;-38
2023/03/23 00:55:42;;;;;;;;;;;;;;;;;;5033863;28;19955;-38
2023/03/23 00:58:09;;;;;;;;;;;;;;;;;;5033998;28;20474;-38
2023/03/23 01:00:35;;;;;;;;;;;;;;;;;;5032755;28;20290;-39
2023/03/23 01:03:01;;;;;;;;;;;;;;;;;;5033675;28;20003;-38
2023/03/23 01:05:31;;;;;;;;;;;;;;;;;;5033334;28;19916;-39
2023/03/23 01:07:58;;;;;;;;;;;;;;;;;;5033741;28;19909;-38
2023/03/23 01:10:26;;;;;;;;;;;;;;;;;;5032477;28;19951;-38
2023/03/23 01:12:52;;;;;;;;;;;;;;;;;;5033579;28;19913;-39
2023/03/23 01:15:19;;;;;;;;;;;;;;;;;;5033107;28;19909;-38
2023/03/23 01:17:45;;;;;;;;;;;;;;;;;;5027440;28;20319;-38
2023/03/23 01:20:11;;;;;;;;;;;;;;;;;;5023306;28;19917;-40
2023/03/23 01:22:38;;;;;;;;;;;;;;;;;;5024928;28;20381;-39
2023/03/23 01:25:04;;;;;;;;;;;;;;;;;;5026836;28;20450;-39
2023/03/23 01:27:31;;;;;;;;;;;;;;;;;;5025571;28;19924;-39
2023/03/23 01:29:57;;;;;;;;;;;;;;;;;;5029945;28;20358;-39
2023/03/23 01:32:24;;;;;;;;;;;;;;;;;;5024001;28;19909;-40
2023/03/23 01:34:50;;;;;;;;;;;;;;;;;;5022476;28;19909;-39
2023/03/23 01:37:17;;;;;;;;;;;;;;;;;;5022514;28;20494;-39
2023/03/23 01:39:44;;;;;;;;;;;;;;;;;;5024126;28;19963;-39
2023/03/23 01:42:10;;;;;;;;;;;;;;;;;;5022708;28;20352;-39
2023/03/23 01:44:37;;;;;;;;;;;;;;;;;;5022477;28;19912;-39
2023/03/23 01:47:03;;;;;;;;;;;;;;;;;;5023767;28;20279;-39
2023/03/23 01:49:29;;;;;;;;;;;;;;;;;;5022475;28;19932;-39
2023/03/23 01:51:56;;;;;;;;;;;;;;;;;;5022399;28;20398;-39
2023/03/23 01:54:22;;;;;;;;;;;;;;;;;;5023762;28;19921;-39
2023/03/23 01:56:49;;;;;;;;;;;;;;;;;;5022285;28;20032;-39
2023/03/23 01:59:15;;;;;;;;;;;;;;;;;;5024772;28;20393;-40
2023/03/23 02:01:44;;;;;;;;;;;;;;;;;;5032956;28;19947;-39
2023/03/23 02:04:11;;;;;;;;;;;;;;;;;;5032995;28;20008;-39
2023/03/23 02:06:37;;;;;;;;;;;;;;;;;;5033209;28;19916;-40
2023/03/23 02:09:06;;;;;;;;;;;;;;;;;;5033169;28;19974;-40
2023/03/23 02:11:32;;;;;;;;;;;;;;;;;;5032944;28;19913;-39
2023/03/23 02:13:58;;;;;;;;;;;;;;;;;;5032950;28;19916;-40
2023/03/23 02:16:26;;;;;;;;;;;;;;;;;;5032824;28;19909;-39
2023/03/23 02:18:52;;;;;;;;;;;;;;;;;;5032759;28;19948;-39
2023/03/23 02:21:18;;;;;;;;;;;;;;;;;;5032930;28;20586;-39
2023/03/23 02:23:45;;;;;;;;;;;;;;;;;;5032782;28;20290;-39
2023/03/23 02:26:11;;;;;;;;;;;;;;;;;;5033145;28;20260;-39
2023/03/23 02:28:40;;;;;;;;;;;;;;;;;;5032650;28;19913;-39
2023/03/23 02:31:07;;;;;;;;;;;;;;;;;;5032634;28;19909;-40
2023/03/23 02:33:33;;;;;;;;;;;;;;;;;;5032430;28;20314;-39
2023/03/23 02:36:00;;;;;;;;;;;;;;;;;;5032652;28;20003;-40
2023/03/23 02:38:26;;;;;;;;;;;;;;;;;;5032326;28;19918;-39
2023/03/23 02:40:53;;;;;;;;;;;;;;;;;;5032574;28;19959;-39
2023/03/23 02:43:19;;;;;;;;;;;;;;;;;;5032379;28;19909;-39
2023/03/23 02:45:46;;;;;;;;;;;;;;;;;;5031791;28;19920;-39
2023/03/23 02:48:12;;;;;;;;;;;;;;;;;;5032390;28;19972;-39
2023/03/23 02:50:39;;;;;;;;;;;;;;;;;;5014540;28;20302;-39
2023/03/23 02:53:05;;;;;;;;;;;;;;;;;;5032328;28;19941;-39
2023/03/23 02:55:31;;;;;;;;;;;;;;;;;;5032113;28;19913;-40
2023/03/23 02:58:01;;;;;;;;;;;;;;;;;;5032136;28;19917;-39
2023/03/23 03:00:28;;;;;;;;;;;;;;;;;;5032113;28;19909;-39
2023/03/23 03:02:54;;;;;;;;;;;;;;;;;;5032182;28;19913;-39
2023/03/23 03:05:20;;;;;;;;;;;;;;;;;;5032035;28;20413;-40
2023/03/23 03:07:48;;;;;;;;;;;;;;;;;;5014334;28;20294;-39
2023/03/23 03:10:14;;;;;;;;;;;;;;;;;;5031907;28;20011;-39
2023/03/23 03:12:41;;;;;;;;;;;;;;;;;;5032090;28;19994;-39
2023/03/23 03:15:07;;;;;;;;;;;;;;;;;;5032092;28;19913;-39
2023/03/23 03:17:33;;;;;;;;;;;;;;;;;;5031921;28;19943;-39
2023/03/23 03:20:04;;;;;;;;;;;;;;;;;;5031718;28;19927;-39
2023/03/23 03:22:30;;;;;;;;;;;;;;;;;;5031859;28;20063;-39
2023/03/23 03:24:57;;;;;;;;;;;;;;;;;;5031870;28;19916;-40
2023/03/23 03:27:23;;;;;;;;;;;;;;;;;;5032013;28;19917;-39
2023/03/23 03:29:50;;;;;;;;;;;;;;;;;;5032010;28;19940;-39
2023/03/23 03:32:18;;;;;;;;;;;;;;;;;;5031728;28;19951;-39
2023/03/23 03:34:44;;;;;;;;;;;;;;;;;;5031545;28;19920;-39
2023/03/23 03:37:11;;;;;;;;;;;;;;;;;;5031813;28;20371;-39
2023/03/23 03:39:38;;;;;;;;;;;;;;;;;;5031951;28;19913;-39
2023/03/23 03:42:04;;;;;;;;;;;;;;;;;;5031786;28;19959;-39
2023/03/23 03:44:31;;;;;;;;;;;;;;;;;;5014010;28;19984;-39
2023/03/23 03:46:57;;;;;;;;;;;;;;;;;;5031653;28;19913;-38
2023/03/23 03:49:24;;;;;;;;;;;;;;;;;;5013965;28;20279;-39
2023/03/23 03:51:50;;;;;;;;;;;;;;;;;;5031578;28;19920;-39
2023/03/23 03:54:17;;;;;;;;;;;;;;;;;;5031527;28;20290;-39
2023/03/23 03:56:45;;;;;;;;;;;;;;;;;;5031610;28;19925;-39
2023/03/23 03:59:12;;;;;;;;;;;;;;;;;;5017736;28;19963;-39
2023/03/23 04:01:38;;;;;;;;;;;;;;;;;;5035516;28;19909;-39
2023/03/23 04:04:06;;;;;;;;;;;;;;;;;;5035469;28;19918;-39
2023/03/23 04:06:35;;;;;;;;;;;;;;;;;;5035264;28;19917;-39
2023/03/23 04:09:05;;;;;;;;;;;;;;;;;;5035434;28;19909;-39
2023/03/23 04:11:32;;;;;;;;;;;;;;;;;;5035263;28;19913;-39
2023/03/23 04:13:58;;;;;;;;;;;;;;;;;;5035286;28;19908;-39
2023/03/23 04:16:26;;;;;;;;;;;;;;;;;;5035230;28;19919;-39
2023/03/23 04:18:55;;;;;;;;;;;;;;;;;;5034973;28;20262;-39
2023/03/23 04:21:22;;;;;;;;;;;;;;;;;;5035222;28;19908;-39
2023/03/23 04:23:48;;;;;;;;;;;;;;;;;;5035149;28;19923;-39
2023/03/23 04:26:15;;;;;;;;;;;;;;;;;;5035081;28;19919;-39
2023/03/23 04:28:42;;;;;;;;;;;;;;;;;;5017273;28;19912;-39
2023/03/23 04:31:09;;;;;;;;;;;;;;;;;;5034927;28;19967;-39
2023/03/23 04:33:36;;;;;;;;;;;;;;;;;;5034864;28;19963;-39
2023/03/23 04:36:03;;;;;;;;;;;;;;;;;;5034765;28;19912;-39
2023/03/23 04:38:32;;;;;;;;;;;;;;;;;;5034660;28;19921;-39
2023/03/23 04:41:01;;;;;;;;;;;;;;;;;;5034650;28;19908;-39
2023/03/23 04:43:27;;;;;;;;;;;;;;;;;;5034666;28;19954;-39
2023/03/23 04:45:55;;;;;;;;;;;;;;;;;;5034754;28;19913;-39
2023/03/23 04:48:22;;;;;;;;;;;;;;;;;;5034647;28;19912;-39
2023/03/23 04:50:50;;;;;;;;;;;;;;;;;;5034506;28;19924;-39
2023/03/23 04:53:17;;;;;;;;;;;;;;;;;;5034570;28;19920;-39
2023/03/23 04:55:44;;;;;;;;;;;;;;;;;;5034424;28;20002;-39
2023/03/23 04:58:12;;;;;;;;;;;;;;;;;;5034439;28;19917;-39
2023/03/23 05:00:38;;;;;;;;;;;;;;;;;;5034417;28;19909;-39
2023/03/23 05:03:07;;;;;;;;;;;;;;;;;;5034325;28;19966;-39
2023/03/23 05:05:34;;;;;;;;;;;;;;;;;;5034205;28;19919;-39
2023/03/23 05:08:00;;;;;;;;;;;;;;;;;;5033638;28;19909;-39
2023/03/23 05:10:27;;;;;;;;;;;;;;;;;;5034091;28;19913;-39
2023/03/23 05:12:53;;;;;;;;;;;;;;;;;;5034268;28;19913;-40
2023/03/23 05:15:19;;;;;;;;;;;;;;;;;;5034067;28;19909;-39
2023/03/23 05:17:46;;;;;;;;;;;;;;;;;;5033851;28;19940;-39
2023/03/23 05:20:12;;;;;;;;;;;;;;;;;;5026994;28;19913;-39
2023/03/23 05:22:38;;;;;;;;;;;;;;;;;;5014152;28;19920;-39
2023/03/23 05:25:05;;;;;;;;;;;;;;;;;;5014157;28;19909;-39
2023/03/23 05:27:32;;;;;;;;;;;;;;;;;;5014156;28;19913;-39
2023/03/23 05:29:59;;;;;;;;;;;;;;;;;;5014178;28;19912;-39
2023/03/23 05:32:28;;;;;;;;;;;;;;;;;;5014056;28;20339;-39
2023/03/23 05:34:55;;;;;;;;;;;;;;;;;;5014020;28;19917;-39
2023/03/23 05:37:21;;;;;;;;;;;;;;;;;;5013910;28;19928;-39
2023/03/23 05:39:48;;;;;;;;;;;;;;;;;;5014027;28;19971;-39
2023/03/23 05:42:14;;;;;;;;;;;;;;;;;;5013872;28;19917;-39
2023/03/23 05:44:40;;;;;;;;;;;;;;;;;;5013578;28;20006;-39
2023/03/23 05:47:07;;;;;;;;;;;;;;;;;;5013867;28;19964;-39
2023/03/23 05:49:36;;;;;;;;;;;;;;;;;;5013769;28;20403;-38
2023/03/23 05:52:02;;;;;;;;;;;;;;;;;;5013674;28;20013;-39
2023/03/23 05:54:28;;;;;;;;;;;;;;;;;;5013494;28;19920;-39
2023/03/23 05:56:55;;;;;;;;;;;;;;;;;;5013531;28;19975;-38
2023/03/23 05:59:21;;;;;;;;;;;;;;;;;;5013631;28;19909;-39
2023/03/23 06:01:47;;;;;;;;;;;;;;;;;;5020860;28;19913;-39
2023/03/23 06:04:15;;;;;;;;;;;;;;;;;;5032987;28;19963;-39
2023/03/23 06:06:43;;;;;;;;;;;;;;;;;;5033215;28;19982;-39
2023/03/23 06:09:09;;;;;;;;;;;;;;;;;;5033268;28;20278;-39
2023/03/23 06:11:36;;;;;;;;;;;;;;;;;;5033107;28;19909;-39
2023/03/23 06:14:02;;;;;;;;;;;;;;;;;;5032965;28;20442;-39
2023/03/23 06:16:29;;;;;;;;;;;;;;;;;;5031989;28;19935;-39
2023/03/23 06:18:56;;;;;;;;;;;;;;;;;;5032839;28;19917;-39
2023/03/23 06:21:22;;;;;;;;;;;;;;;;;;5032374;28;20442;-39
2023/03/23 06:23:50;;;;;;;;;;;;;;;;;;5032905;28;20002;-39
2023/03/23 06:26:16;;;;;;;;;;;;;;;;;;5032856;28;20379;-39
2023/03/23 06:28:43;;;;;;;;;;;;;;;;;;5032853;28;19935;-39
2023/03/23 06:31:09;;;;;;;;;;;;;;;;;;5032742;28;19928;-39
2023/03/23 06:33:35;;;;;;;;;;;;;;;;;;5032737;28;20298;-39
2023/03/23 06:36:02;;;;;;;;;;;;;;;;;;5032771;28;19992;-39
2023/03/23 06:38:28;;;;;;;;;;;;;;;;;;5032700;28;19927;-39
2023/03/23 06:40:55;;;;;;;;;;;;;;;;;;5032678;28;19952;-39
2023/03/23 06:43:21;;;;;;;;;;;;;;;;;;5032564;28;19919;-39
2023/03/23 06:45:48;;;;;;;;;;;;;;;;;;5032640;28;19915;-39
2023/03/23 06:48:14;;;;;;;;;;;;;;;;;;5032575;28;20351;-39
2023/03/23 06:50:40;;;;;;;;;;;;;;;;;;5032573;28;19913;-39
2023/03/23 06:53:07;;;;;;;;;;;;;;;;;;5032648;28;19939;-39
2023/03/23 06:55:33;;;;;;;;;;;;;;;;;;5032453;28;20008;-39
2023/03/23 06:58:01;;;;;;;;;;;;;;;;;;5032292;28;19940;-39
2023/03/23 07:00:27;;;;;;;;;;;;;;;;;;5032348;28;19909;-39
2023/03/23 07:02:53;;;;;;;;;;;;;;;;;;5032226;28;19963;-39
2023/03/23 07:05:20;;;;;;;;;;;;;;;;;;5032381;28;19958;-39
2023/03/23 07:07:47;;;;;;;;;;;;;;;;;;5032490;28;20420;-39
2023/03/23 07:10:13;;;;;;;;;;;;;;;;;;5032213;28;19924;-39
2023/03/23 07:12:41;;;;;;;;;;;;;;;;;;5032330;28;19974;-39
2023/03/23 07:15:10;;;;;;;;;;;;;;;;;;5032139;28;19963;-39
2023/03/23 07:17:36;;;;;;;;;;;;;;;;;;5032027;28;20318;-39
2023/03/23 07:20:03;;;;;;;;;;;;;;;;;;5031955;28;19943;-39
2023/03/23 07:22:29;;;;;;;;;;;;;;;;;;5032112;28;19992;-39
2023/03/23 07:24:56;;;;;;;;;;;;;;;;;;5032034;28;20295;-39
2023/03/23 07:27:23;;;;;;;;;;;;;;;;;;5031989;28;19956;-39
2023/03/23 07:29:49;;;;;;;;;;;;;;;;;;5032019;28;20275;-39
2023/03/23 07:32:16;;;;;;;;;;;;;;;;;;5034567;28;19916;-39
2023/03/23 07:34:42;;;;;;;;;;;;;;;;;;5036039;28;20030;-39
2023/03/23 07:37:09;;;;;;;;;;;;;;;;;;5036084;28;19921;-39
2023/03/23 07:39:35;;;;;;;;;;;;;;;;;;5036056;28;19913;-39
2023/03/23 07:42:02;;;;;;;;;;;;;;;;;;5036068;28;19948;-39
2023/03/23 07:44:28;;;;;;;;;;;;;;;;;;5035815;28;19925;-39
2023/03/23 07:46:55;;;;;;;;;;;;;;;;;;5034677;28;20298;-39
2023/03/23 07:49:24;;;;;;;;;;;;;;;;;;5035750;28;20024;-39
2023/03/23 07:51:51;;;;;;;;;;;;;;;;;;5035852;28;19963;-39
2023/03/23 07:54:17;;;;;;;;;;;;;;;;;;5034354;28;20350;-39
2023/03/23 07:56:44;;;;;;;;;;;;;;;;;;5035673;28;19917;-38
2023/03/23 07:59:12;;;;;;;;;;;;;;;;;;5035645;28;19909;-39
2023/03/23 08:01:38;;;;;;;;;;;;;;;;;;5035492;28;19999;-39
2023/03/23 08:04:05;;;;;;;;;;;;;;;;;;5035580;28;19928;-39
2023/03/23 08:06:31;;;;;;;;;;;;;;;;;;5035556;28;19988;-39
2023/03/23 08:08:57;;;;;;;;;;;;;;;;;;5035476;28;20371;-39
2023/03/23 08:11:24;;;;;;;;;;;;;;;;;;5035460;28;19920;-39
2023/03/23 08:13:51;;;;;;;;;;;;;;;;;;5035309;28;19959;-39
2023/03/23 08:16:18;;;;;;;;;;;;;;;;;;5035338;28;19913;-39
2023/03/23 08:18:45;;;;;;;;;;;;;;;;;;5035007;28;19921;-39
2023/03/23 08:21:12;;;;;;;;;;;;;;;;;;5035279;28;19991;-38
2023/03/23 08:23:39;;;;;;;;;;;;;;;;;;5034994;28;19913;-39
2023/03/23 08:26:06;;;;;;;;;;;;;;;;;;5035140;28;20264;-39
2023/03/23 08:28:32;;;;;;;;;;;;;;;;;;5035171;28;19932;-39
2023/03/23 08:30:59;;;;;;;;;;;;;;;;;;5035151;28;19905;-39
2023/03/23 08:33:25;;;;;;;;;;;;;;;;;;5034883;28;19998;-39
2023/03/23 08:35:51;;;;;;;;;;;;;;;;;;5034999;28;19909;-39
2023/03/23 08:38:21;;;;;;;;;;;;;;;;;;5034907;28;19916;-40
2023/03/23 08:40:48;;;;;;;;;;;;;;;;;;5034926;28;20286;-39
2023/03/23 08:43:15;;;;;;;;;;;;;;;;;;5033893;28;20587;-39
2023/03/23 08:45:41;;;;;;;;;;;;;;;;;;5034717;28;19909;-39
2023/03/23 08:48:08;;;;;;;;;;;;;;;;;;5034823;28;19913;-39
2023/03/23 08:50:35;;;;;;;;;;;;;;;;;;5034740;28;20286;-39
2023/03/23 08:53:01;;;;;;;;;;;;;;;;;;5034577;28;19913;-40
2023/03/23 08:55:28;;;;;;;;;;;;;;;;;;5034689;28;19909;-39
2023/03/23 08:57:54;;;;;;;;;;;;;;;;;;5039317;28;19924;-39
2023/03/23 09:00:23;;;;;;;;;;;;;;;;;;5047991;28;19915;-39
2023/03/23 09:02:50;;;;;;;;;;;;;;;;;;5054347;28;19952;-39
2023/03/23 09:05:16;;;;;;;;;;;;;;;;;;5054347;28;19955;-39
2023/03/23 09:07:43;;;;;;;;;;;;;;;;;;5054334;28;19913;-39
2023/03/23 09:10:09;;;;;;;;;;;;;;;;;;5053944;28;19948;-39
2023/03/23 09:12:36;;;;;;;;;;;;;;;;;;5054053;28;19909;-40
2023/03/23 09:15:08;;;;;;;;;;;;;;;;;;5042061;28;20430;-40
2023/03/23 09:17:34;;;;;;;;;;;;;;;;;;5033813;28;19967;-40
2023/03/23 09:20:02;;;;;;;;;;;;;;;;;;5033339;28;19917;-40
2023/03/23 09:22:29;;;;;;;;;;;;;;;;;;5030941;28;19913;-40
2023/03/23 09:24:55;;;;;;;;;;;;;;;;;;5015857;28;19909;-40
2023/03/23 09:27:22;;;;;;;;;;;;;;;;;;5034056;28;19967;-39
2023/03/23 09:29:48;;;;;;;;;;;;;;;;;;5032977;28;19955;-39
2023/03/23 09:32:15;;;;;;;;;;;;;;;;;;5027681;28;19913;-40
2023/03/23 09:34:41;;;;;;;;;;;;;;;;;;5021500;28;20576;-40
2023/03/23 09:37:09;;;;;;;;;;;;;;;;;;5026616;28;19917;-40
2023/03/23 09:39:35;;;;;;;;;;;;;;;;;;5028562;28;19916;-40
2023/03/23 09:42:02;;;;;;;;;;;;;;;;;;5030030;28;19913;-40
2023/03/23 09:44:28;;;;;;;;;;;;;;;;;;5018679;28;19976;-39
2023/03/23 09:46:56;;;;;;;;;;;;;;;;;;5022213;28;19959;-40
2023/03/23 09:49:23;;;;;;;;;;;;;;;;;;5013577;28;20367;-40
2023/03/23 09:51:50;;;;;;;;;;;;;;;;;;5013592;28;19913;-39
2023/03/23 09:54:16;;;;;;;;;;;;;;;;;;5013443;28;19917;-40
2023/03/23 09:56:43;;;;;;;;;;;;;;;;;;5013656;28;20363;-40
2023/03/23 09:59:09;;;;;;;;;;;;;;;;;;5013715;28;20332;-40
2023/03/23 10:01:35;;;;;;;;;;;;;;;;;;5013629;28;20429;-40
2023/03/23 10:04:02;;;;;;;;;;;;;;;;;;5013548;28;19916;-40
2023/03/23 10:06:28;;;;;;;;;;;;;;;;;;5013511;28;19917;-40
2023/03/23 10:08:56;;;;;;;;;;;;;;;;;;4995859;28;20012;-39
2023/03/23 10:11:22;;;;;;;;;;;;;;;;;;5013295;28;19913;-40
2023/03/23 10:13:49;;;;;;;;;;;;;;;;;;4995651;28;19940;-39
2023/03/23 10:16:16;;;;;;;;;;;;;;;;;;5013342;28;19944;-40
2023/03/23 10:18:42;;;;;;;;;;;;;;;;;;5013115;28;19917;-40
2023/03/23 10:21:09;;;;;;;;;;;;;;;;;;5013264;28;19913;-40
2023/03/23 10:23:35;;;;;;;;;;;;;;;;;;5013012;28;20647;-40
2023/03/23 10:26:02;;;;;;;;;;;;;;;;;;5013049;28;19921;-40
2023/03/23 10:28:28;;;;;;;;;;;;;;;;;;5013162;28;20004;-40
2023/03/23 10:30:55;;;;;;;;;;;;;;;;;;5013124;28;19919;-39
2023/03/23 10:33:22;;;;;;;;;;;;;;;;;;5012865;28;19951;-39
2023/03/23 10:35:48;;;;;;;;;;;;;;;;;;5013107;28;20439;-39
2023/03/23 10:38:15;;;;;;;;;;;;;;;;;;5012910;28;20395;-39
2023/03/23 10:40:41;;;;;;;;;;;;;;;;;;5012460;28;19917;-39
2023/03/23 10:43:09;;;;;;;;;;;;;;;;;;5020145;28;20397;-39
2023/03/23 10:45:36;;;;;;;;;;;;;;;;;;5012567;28;19914;-39
2023/03/23 10:48:02;;;;;;;;;;;;;;;;;;5012250;28;19956;-39
2023/03/23 10:50:29;;;;;;;;;;;;;;;;;;5012724;28;19956;-39
2023/03/23 10:52:55;;;;;;;;;;;;;;;;;;5012620;28;19916;-39
2023/03/23 10:55:22;;;;;;;;;;;;;;;;;;5012621;28;19913;-39
2023/03/23 10:57:49;;;;;;;;;;;;;;;;;;5012435;28;20364;-39
2023/03/23 11:00:16;;;;;;;;;;;;;;;;;;5012593;28;20059;-39
2023/03/23 11:02:42;;;;;;;;;;;;;;;;;;5012259;28;19920;-38
2023/03/23 11:05:08;;;;;;;;;;;;;;;;;;5012004;28;19924;-39
2023/03/23 11:07:35;;;;;;;;;;;;;;;;;;5022519;28;19909;-38
2023/03/23 11:10:03;;;;;;;;;;;;;;;;;;5031834;28;19917;-39
2023/03/23 11:12:29;;;;;;;;;;;;;;;;;;5031833;28;20004;-40
2023/03/23 11:14:56;;;;;;;;;;;;;;;;;;5022990;28;19919;-39
2023/03/23 11:17:23;;;;;;;;;;;;;;;;;;5020369;28;19925;-37
2023/03/23 11:19:49;;;;;;;;;;;;;;;;;;5021804;28;19924;-37
2023/03/23 11:22:16;;;;;;;;;;;;;;;;;;5021644;28;19913;-41
2023/03/23 11:24:43;;;;;;;;;;;;;;;;;;4997366;28;19996;-39
2023/03/23 11:27:09;;;;;;;;;;;;;;;;;;5012065;28;19917;-39
2023/03/23 11:29:35;;;;;;;;;;;;;;;;;;5012147;28;20004;-38
2023/03/23 11:32:05;;;;;;;;;;;;;;;;;;5021779;28;19909;-39
2023/03/23 11:34:35;;;;;;;;;;;;;;;;;;5040137;28;19909;-37
2023/03/23 11:37:01;;;;;;;;;;;;;;;;;;5031676;28;19920;-38
2023/03/23 11:39:28;;;;;;;;;;;;;;;;;;5029636;28;19924;-38
2023/03/23 11:41:54;;;;;;;;;;;;;;;;;;5030891;28;19916;-38
2023/03/23 11:44:20;;;;;;;;;;;;;;;;;;5023391;28;19909;-38
2023/03/23 11:46:47;;;;;;;;;;;;;;;;;;5011813;28;20014;-39
2023/03/23 11:49:13;;;;;;;;;;;;;;;;;;5016824;28;19917;-39
2023/03/23 11:51:39;;;;;;;;;;;;;;;;;;5020113;28;19909;-38
2023/03/23 11:54:06;;;;;;;;;;;;;;;;;;5030884;28;19920;-38
2023/03/23 11:56:32;;;;;;;;;;;;;;;;;;5031216;28;20375;-39
2023/03/23 11:58:59;;;;;;;;;;;;;;;;;;5031274;28;19921;-38
2023/03/23 12:01:27;;;;;;;;;;;;;;;;;;5018139;28;19909;-38
2023/03/23 12:03:53;;;;;;;;;;;;;;;;;;5030734;28;19971;-39
2023/03/23 12:06:20;;;;;;;;;;;;;;;;;;5031281;28;19959;-39
2023/03/23 12:08:46;;;;;;;;;;;;;;;;;;5031006;28;19909;-39
2023/03/23 12:11:12;;;;;;;;;;;;;;;;;;5031147;28;19948;-38
2023/03/23 12:13:39;;;;;;;;;;;;;;;;;;5030862;28;19920;-39
2023/03/23 12:16:06;;;;;;;;;;;;;;;;;;5031135;28;19909;-39
2023/03/23 12:18:32;;;;;;;;;;;;;;;;;;5031734;28;20404;-39
2023/03/23 12:20:59;;;;;;;;;;;;;;;;;;5034987;28;19920;-39
2023/03/23 12:23:27;;;;;;;;;;;;;;;;;;5033911;28;19919;-39
2023/03/23 12:25:53;;;;;;;;;;;;;;;;;;5034593;28;19913;-39
2023/03/23 12:28:20;;;;;;;;;;;;;;;;;;5034401;28;19913;-39
2023/03/23 12:30:46;;;;;;;;;;;;;;;;;;5034568;28;19913;-39
2023/03/23 12:33:12;;;;;;;;;;;;;;;;;;5034512;28;20310;-38
2023/03/23 12:35:39;;;;;;;;;;;;;;;;;;5034217;28;19917;-39
2023/03/23 12:38:05;;;;;;;;;;;;;;;;;;5032801;28;20003;-38
2023/03/23 12:40:32;;;;;;;;;;;;;;;;;;5034323;28;20004;-39
2023/03/23 12:42:58;;;;;;;;;;;;;;;;;;5034314;28;19976;-39
2023/03/23 12:45:25;;;;;;;;;;;;;;;;;;5034046;28;19923;-39
2023/03/23 12:47:51;;;;;;;;;;;;;;;;;;5034002;28;20062;-39
2023/03/23 12:50:18;;;;;;;;;;;;;;;;;;5034095;28;19916;-40
2023/03/23 12:52:45;;;;;;;;;;;;;;;;;;5034183;28;19909;-39
2023/03/23 12:55:12;;;;;;;;;;;;;;;;;;5033930;28;19913;-39
2023/03/23 12:57:38;;;;;;;;;;;;;;;;;;5033821;28;19916;-39
2023/03/23 13:00:10;;;;;;;;;;;;;;;;;;5034091;28;19970;-39
2023/03/23 13:02:37;;;;;;;;;;;;;;;;;;5033491;28;19959;-39
2023/03/23 13:05:04;;;;;;;;;;;;;;;;;;5033851;28;20290;-38
2023/03/23 13:07:30;;;;;;;;;;;;;;;;;;5033863;28;19913;-39
2023/03/23 13:09:56;;;;;;;;;;;;;;;;;;5033866;28;19971;-39
2023/03/23 13:12:23;;;;;;;;;;;;;;;;;;5033900;28;19909;-39
2023/03/23 13:14:49;;;;;;;;;;;;;;;;;;5033809;28;19913;-39
2023/03/23 13:17:16;;;;;;;;;;;;;;;;;;5033828;28;19921;-39
2023/03/23 13:19:42;;;;;;;;;;;;;;;;;;5033089;28;19924;-39
2023/03/23 13:22:08;;;;;;;;;;;;;;;;;;5033839;28;19966;-39
2023/03/23 13:24:35;;;;;;;;;;;;;;;;;;5033531;28;19951;-39
2023/03/23 13:27:01;;;;;;;;;;;;;;;;;;5033595;28;19917;-39
2023/03/23 13:29:28;;;;;;;;;;;;;;;;;;5032973;28;19966;-39
2023/03/23 13:31:54;;;;;;;;;;;;;;;;;;5033645;28;19909;-38
2023/03/23 13:34:21;;;;;;;;;;;;;;;;;;5032900;28;19913;-38
2023/03/23 13:36:47;;;;;;;;;;;;;;;;;;5033315;28;20385;-39
2023/03/23 13:39:14;;;;;;;;;;;;;;;;;;5033308;28;19913;-38
2023/03/23 13:41:41;;;;;;;;;;;;;;;;;;5033265;28;20282;-38
2023/03/23 13:44:07;;;;;;;;;;;;;;;;;;5033161;28;19909;-38
2023/03/23 13:46:35;;;;;;;;;;;;;;;;;;5033224;28;20291;-38
2023/03/23 13:49:01;;;;;;;;;;;;;;;;;;5032728;28;19920;-38
2023/03/23 13:51:28;;;;;;;;;;;;;;;;;;5033144;28;19975;-38
2023/03/23 13:53:54;;;;;;;;;;;;;;;;;;5032700;28;20370;-39
2023/03/23 13:56:21;;;;;;;;;;;;;;;;;;5032922;28;19967;-38
2023/03/23 13:58:47;;;;;;;;;;;;;;;;;;5032797;28;20267;-38
2023/03/23 14:01:16;;;;;;;;;;;;;;;;;;5032929;28;20020;-38
2023/03/23 14:03:43;;;;;;;;;;;;;;;;;;5032766;28;20263;-38
2023/03/23 14:06:09;;;;;;;;;;;;;;;;;;5032581;28;20295;-38
2023/03/23 14:08:36;;;;;;;;;;;;;;;;;;5032880;28;19913;-38
2023/03/23 14:11:05;;;;;;;;;;;;;;;;;;5032505;28;19917;-39
2023/03/23 14:13:32;;;;;;;;;;;;;;;;;;5032678;28;19983;-39
2023/03/23 14:15:58;;;;;;;;;;;;;;;;;;5032679;28;19916;-38
2023/03/23 14:18:24;;;;;;;;;;;;;;;;;;5032468;28;20367;-38
2023/03/23 14:20:51;;;;;;;;;;;;;;;;;;5032351;28;19912;-39
2023/03/23 14:23:17;;;;;;;;;;;;;;;;;;5032535;28;19963;-39
2023/03/23 14:25:44;;;;;;;;;;;;;;;;;;5032519;28;20011;-39
2023/03/23 14:28:11;;;;;;;;;;;;;;;;;;5032687;28;19916;-39
2023/03/23 14:30:37;;;;;;;;;;;;;;;;;;5032189;28;19913;-38
2023/03/23 14:33:04;;;;;;;;;;;;;;;;;;5032227;28;19912;-38
2023/03/23 14:35:30;;;;;;;;;;;;;;;;;;5019162;28;19996;-38
2023/03/23 14:37:57;;;;;;;;;;;;;;;;;;5032155;28;20484;-39
2023/03/23 14:40:23;;;;;;;;;;;;;;;;;;5031927;28;20117;-39
2023/03/23 14:42:50;;;;;;;;;;;;;;;;;;5031402;28;19913;-40
2023/03/23 14:45:16;;;;;;;;;;;;;;;;;;5019354;28;19913;-39
2023/03/23 14:47:42;;;;;;;;;;;;;;;;;;5032034;28;20566;-39
2023/03/23 14:50:09;;;;;;;;;;;;;;;;;;5031981;28;19919;-39
2023/03/23 14:52:35;;;;;;;;;;;;;;;;;;5031736;28;19920;-40
2023/03/23 14:55:02;;;;;;;;;;;;;;;;;;5032037;28;20012;-39
2023/03/23 14:57:28;;;;;;;;;;;;;;;;;;5031776;28;20294;-40
2023/03/23 14:59:55;;;;;;;;;;;;;;;;;;5031919;28;19909;-39
2023/03/23 15:02:21;;;;;;;;;;;;;;;;;;5031576;28;19913;-40
2023/03/23 15:04:47;;;;;;;;;;;;;;;;;;5031932;28;19909;-39
2023/03/23 15:07:15;;;;;;;;;;;;;;;;;;5031718;28;19917;-40
2023/03/23 15:09:41;;;;;;;;;;;;;;;;;;5031664;28;20105;-39
2023/03/23 15:12:07;;;;;;;;;;;;;;;;;;5031462;28;19909;-40
2023/03/23 15:14:34;;;;;;;;;;;;;;;;;;5031844;28;20440;-39
2023/03/23 15:17:00;;;;;;;;;;;;;;;;;;5031365;28;19909;-40
2023/03/23 15:19:27;;;;;;;;;;;;;;;;;;5031672;28;20323;-39
2023/03/23 15:21:53;;;;;;;;;;;;;;;;;;5031326;28;20003;-40
2023/03/23 15:24:19;;;;;;;;;;;;;;;;;;5031623;28;19913;-39
2023/03/23 15:26:46;;;;;;;;;;;;;;;;;;5031325;28;19936;-39
2023/03/23 15:29:12;;;;;;;;;;;;;;;;;;5031622;28;19945;-39
2023/03/23 15:31:39;;;;;;;;;;;;;;;;;;5031322;28;19931;-40
2023/03/23 15:34:07;;;;;;;;;;;;;;;;;;5031409;28;19936;-39
2023/03/23 15:36:34;;;;;;;;;;;;;;;;;;5031284;28;19924;-39
2023/03/23 15:39:00;;;;;;;;;;;;;;;;;;5031499;28;19924;-39
2023/03/23 15:41:27;;;;;;;;;;;;;;;;;;5031362;28;20472;-39
2023/03/23 15:43:53;;;;;;;;;;;;;;;;;;5031396;28;19928;-39
2023/03/23 15:46:20;;;;;;;;;;;;;;;;;;5031305;28;19913;-40
2023/03/23 15:48:46;;;;;;;;;;;;;;;;;;5031453;28;19920;-39
2023/03/23 15:51:12;;;;;;;;;;;;;;;;;;5031288;28;20271;-40
2023/03/23 15:53:39;;;;;;;;;;;;;;;;;;5034370;28;19916;-39
2023/03/23 15:56:05;;;;;;;;;;;;;;;;;;5035352;28;19920;-40
2023/03/23 15:58:32;;;;;;;;;;;;;;;;;;5035303;28;20062;-39
2023/03/23 16:00:58;;;;;;;;;;;;;;;;;;5034742;28;19963;-40
2023/03/23 16:03:26;;;;;;;;;;;;;;;;;;5035140;28;19913;-39
2023/03/23 16:05:52;;;;;;;;;;;;;;;;;;5034627;28;19920;-38
2023/03/23 16:08:19;;;;;;;;;;;;;;;;;;5034806;28;19913;-39
2023/03/23 16:10:45;;;;;;;;;;;;;;;;;;5034437;28;19913;-39
2023/03/23 16:13:11;;;;;;;;;;;;;;;;;;5034585;28;19909;-39
2023/03/23 16:15:38;;;;;;;;;;;;;;;;;;5034608;28;20302;-39
2023/03/23 16:18:04;;;;;;;;;;;;;;;;;;5034430;28;19920;-39
2023/03/23 16:20:32;;;;;;;;;;;;;;;;;;5034850;28;19913;-39
2023/03/23 16:22:58;;;;;;;;;;;;;;;;;;5035052;28;19913;-39
2023/03/23 16:25:25;;;;;;;;;;;;;;;;;;5034925;28;20368;-39
2023/03/23 16:27:53;;;;;;;;;;;;;;;;;;5034848;28;19913;-39
2023/03/23 16:30:19;;;;;;;;;;;;;;;;;;5034651;28;19963;-39
2023/03/23 16:32:45;;;;;;;;;;;;;;;;;;5034760;28;19963;-39
2023/03/23 16:35:12;;;;;;;;;;;;;;;;;;5034774;28;19909;-48
2023/03/23 16:37:39;;;;;;;;;;;;;;;;;;5034419;28;19917;-39
2023/03/23 16:40:06;;;;;;;;;;;;;;;;;;5034508;28;19913;-39
2023/03/23 16:42:32;;;;;;;;;;;;;;;;;;5034476;28;19948;-39